sensor_id;sensor_type;location;lat;lon;timestamp;pressure;altitude;pressure_sealevel;temperature;humidity
57412;BME280;43247;52.828;-8.980;2023-02-10T00:00:50;103430.61;;;6.13;80.15
57412;BME280;43247;52.828;-8.980;2023-02-10T00:01:49;103429.89;;;6.16;80.06
57412;BME280;43247;52.828;-8.980;2023-02-10T00:02:50;103428.76;;;6.22;79.99
57412;BME280;43247;52.828;-8.980;2023-02-10T00:03:50;103429.13;;;6.22;79.94
57412;BME280;43247;52.828;-8.980;2023-02-10T00:04:51;103427.90;;;6.22;79.98
57412;BME280;43247;52.828;-8.980;2023-02-10T00:05:54;103428.74;;;6.20;80.09
57412;BME280;43247;52.828;-8.980;2023-02-10T00:06:52;103432.93;;;6.19;80.17
57412;BME280;43247;52.828;-8.980;2023-02-10T00:07:53;103431.50;;;6.18;80.10
57412;BME280;43247;52.828;-8.980;2023-02-10T00:08:55;103434.67;;;6.18;80.13
57412;BME280;43247;52.828;-8.980;2023-02-10T00:09:54;103431.65;;;6.17;80.14
57412;BME280;43247;52.828;-8.980;2023-02-10T00:10:56;103433.61;;;6.17;80.12
57412;BME280;43247;52.828;-8.980;2023-02-10T00:11:56;103435.51;;;6.17;80.18
57412;BME280;43247;52.828;-8.980;2023-02-10T00:12:56;103433.97;;;6.17;80.25
57412;BME280;43247;52.828;-8.980;2023-02-10T00:13:56;103435.49;;;6.16;80.22
57412;BME280;43247;52.828;-8.980;2023-02-10T00:14:57;103439.07;;;6.16;80.23
57412;BME280;43247;52.828;-8.980;2023-02-10T00:15:58;103439.24;;;6.16;80.27
57412;BME280;43247;52.828;-8.980;2023-02-10T00:16:58;103438.44;;;6.16;80.31
57412;BME280;43247;52.828;-8.980;2023-02-10T00:17:59;103436.06;;;6.16;80.38
57412;BME280;43247;52.828;-8.980;2023-02-10T00:18:59;103434.41;;;6.16;80.41
57412;BME280;43247;52.828;-8.980;2023-02-10T00:19:59;103431.67;;;6.16;80.40
57412;BME280;43247;52.828;-8.980;2023-02-10T00:21:06;103426.93;;;6.16;80.44
57412;BME280;43247;52.828;-8.980;2023-02-10T00:22:02;103426.22;;;6.16;80.41
57412;BME280;43247;52.828;-8.980;2023-02-10T00:23:01;103425.09;;;6.16;80.49
57412;BME280;43247;52.828;-8.980;2023-02-10T00:24:01;103423.29;;;6.16;80.46
57412;BME280;43247;52.828;-8.980;2023-02-10T00:25:02;103422.21;;;6.16;80.54
57412;BME280;43247;52.828;-8.980;2023-02-10T00:26:03;103420.62;;;6.15;80.53
57412;BME280;43247;52.828;-8.980;2023-02-10T00:27:03;103421.73;;;6.15;80.56
57412;BME280;43247;52.828;-8.980;2023-02-10T00:28:04;103423.16;;;6.15;80.66
57412;BME280;43247;52.828;-8.980;2023-02-10T00:29:04;103421.81;;;6.14;80.64
57412;BME280;43247;52.828;-8.980;2023-02-10T00:30:05;103420.81;;;6.14;80.67
57412;BME280;43247;52.828;-8.980;2023-02-10T00:31:06;103417.92;;;6.13;80.67
57412;BME280;43247;52.828;-8.980;2023-02-10T00:32:05;103421.99;;;6.14;80.71
57412;BME280;43247;52.828;-8.980;2023-02-10T00:33:06;103420.40;;;6.13;80.77
57412;BME280;43247;52.828;-8.980;2023-02-10T00:34:07;103421.04;;;6.13;80.77
57412;BME280;43247;52.828;-8.980;2023-02-10T00:35:07;103418.08;;;6.12;80.78
57412;BME280;43247;52.828;-8.980;2023-02-10T00:36:09;103416.70;;;6.13;80.82
57412;BME280;43247;52.828;-8.980;2023-02-10T00:37:07;103413.66;;;6.12;80.84
57412;BME280;43247;52.828;-8.980;2023-02-10T00:38:08;103409.46;;;6.12;80.91
57412;BME280;43247;52.828;-8.980;2023-02-10T00:39:12;103407.61;;;6.12;80.94
57412;BME280;43247;52.828;-8.980;2023-02-10T00:40:09;103404.91;;;6.12;80.97
57412;BME280;43247;52.828;-8.980;2023-02-10T00:41:12;103406.25;;;6.12;80.97
57412;BME280;43247;52.828;-8.980;2023-02-10T00:42:09;103409.62;;;6.12;81.01
57412;BME280;43247;52.828;-8.980;2023-02-10T00:43:10;103411.73;;;6.12;81.02
57412;BME280;43247;52.828;-8.980;2023-02-10T00:44:11;103410.91;;;6.12;81.08
57412;BME280;43247;52.828;-8.980;2023-02-10T00:45:12;103411.36;;;6.12;81.05
57412;BME280;43247;52.828;-8.980;2023-02-10T00:46:13;103410.82;;;6.12;81.07
57412;BME280;43247;52.828;-8.980;2023-02-10T00:47:13;103409.57;;;6.12;81.08
57412;BME280;43247;52.828;-8.980;2023-02-10T00:48:13;103410.19;;;6.13;81.11
57412;BME280;43247;52.828;-8.980;2023-02-10T00:49:13;103408.90;;;6.13;81.13
57412;BME280;43247;52.828;-8.980;2023-02-10T00:50:14;103406.09;;;6.14;81.09
57412;BME280;43247;52.828;-8.980;2023-02-10T00:51:15;103402.51;;;6.14;81.06
57412;BME280;43247;52.828;-8.980;2023-02-10T00:52:15;103397.73;;;6.13;81.12
57412;BME280;43247;52.828;-8.980;2023-02-10T00:53:15;103398.63;;;6.13;81.14
57412;BME280;43247;52.828;-8.980;2023-02-10T00:54:15;103393.77;;;6.13;81.18
57412;BME280;43247;52.828;-8.980;2023-02-10T00:55:16;103392.51;;;6.13;81.16
57412;BME280;43247;52.828;-8.980;2023-02-10T00:56:17;103393.13;;;6.13;81.15
57412;BME280;43247;52.828;-8.980;2023-02-10T00:57:17;103391.48;;;6.13;81.21
57412;BME280;43247;52.828;-8.980;2023-02-10T00:58:18;103391.78;;;6.12;81.26
57412;BME280;43247;52.828;-8.980;2023-02-10T00:59:18;103388.87;;;6.12;81.25
57412;BME280;43247;52.828;-8.980;2023-02-10T01:00:19;103386.47;;;6.12;81.30
57412;BME280;43247;52.828;-8.980;2023-02-10T01:01:20;103385.63;;;6.13;81.32
57412;BME280;43247;52.828;-8.980;2023-02-10T01:02:20;103382.55;;;6.13;81.33
57412;BME280;43247;52.828;-8.980;2023-02-10T01:03:22;103384.43;;;6.13;81.32
57412;BME280;43247;52.828;-8.980;2023-02-10T01:04:22;103383.27;;;6.13;81.35
57412;BME280;43247;52.828;-8.980;2023-02-10T01:05:22;103379.50;;;6.13;81.37
57412;BME280;43247;52.828;-8.980;2023-02-10T01:06:23;103377.76;;;6.13;81.38
57412;BME280;43247;52.828;-8.980;2023-02-10T01:07:23;103378.72;;;6.13;81.34
57412;BME280;43247;52.828;-8.980;2023-02-10T01:08:24;103377.06;;;6.13;81.35
57412;BME280;43247;52.828;-8.980;2023-02-10T01:09:25;103374.91;;;6.13;81.38
57412;BME280;43247;52.828;-8.980;2023-02-10T01:10:25;103377.36;;;6.13;81.39
57412;BME280;43247;52.828;-8.980;2023-02-10T01:11:26;103377.75;;;6.13;81.35
57412;BME280;43247;52.828;-8.980;2023-02-10T01:12:26;103376.11;;;6.14;81.41
57412;BME280;43247;52.828;-8.980;2023-02-10T01:13:27;103372.85;;;6.13;81.40
57412;BME280;43247;52.828;-8.980;2023-02-10T01:14:27;103371.83;;;6.13;81.40
57412;BME280;43247;52.828;-8.980;2023-02-10T01:15:27;103370.03;;;6.14;81.41
57412;BME280;43247;52.828;-8.980;2023-02-10T01:16:28;103368.47;;;6.14;81.40
57412;BME280;43247;52.828;-8.980;2023-02-10T01:17:29;103370.29;;;6.14;81.42
57412;BME280;43247;52.828;-8.980;2023-02-10T01:18:28;103368.68;;;6.14;81.47
57412;BME280;43247;52.828;-8.980;2023-02-10T01:19:29;103369.80;;;6.14;81.43
57412;BME280;43247;52.828;-8.980;2023-02-10T01:20:29;103367.42;;;6.14;81.39
57412;BME280;43247;52.828;-8.980;2023-02-10T01:21:31;103367.47;;;6.15;81.36
57412;BME280;43247;52.828;-8.980;2023-02-10T01:22:32;103361.89;;;6.15;81.37
57412;BME280;43247;52.828;-8.980;2023-02-10T01:23:30;103359.42;;;6.15;81.43
57412;BME280;43247;52.828;-8.980;2023-02-10T01:24:31;103360.02;;;6.15;81.44
57412;BME280;43247;52.828;-8.980;2023-02-10T01:25:32;103362.34;;;6.16;81.46
57412;BME280;43247;52.828;-8.980;2023-02-10T01:26:32;103363.98;;;6.15;81.46
57412;BME280;43247;52.828;-8.980;2023-02-10T01:27:32;103364.57;;;6.15;81.47
57412;BME280;43247;52.828;-8.980;2023-02-10T01:28:32;103361.43;;;6.15;81.50
57412;BME280;43247;52.828;-8.980;2023-02-10T01:29:33;103360.72;;;6.16;81.51
57412;BME280;43247;52.828;-8.980;2023-02-10T01:30:34;103361.14;;;6.16;81.52
57412;BME280;43247;52.828;-8.980;2023-02-10T01:31:34;103359.91;;;6.16;81.56
57412;BME280;43247;52.828;-8.980;2023-02-10T01:32:35;103359.99;;;6.16;81.55
57412;BME280;43247;52.828;-8.980;2023-02-10T01:33:36;103361.22;;;6.17;81.54
57412;BME280;43247;52.828;-8.980;2023-02-10T01:34:37;103360.10;;;6.17;81.56
57412;BME280;43247;52.828;-8.980;2023-02-10T01:35:38;103358.93;;;6.17;81.57
57412;BME280;43247;52.828;-8.980;2023-02-10T01:36:38;103356.36;;;6.17;81.61
57412;BME280;43247;52.828;-8.980;2023-02-10T01:37:39;103352.29;;;6.17;81.56
57412;BME280;43247;52.828;-8.980;2023-02-10T01:38:39;103351.03;;;6.18;81.62
57412;BME280;43247;52.828;-8.980;2023-02-10T01:39:40;103347.01;;;6.18;81.63
57412;BME280;43247;52.828;-8.980;2023-02-10T01:40:41;103346.43;;;6.19;81.66
57412;BME280;43247;52.828;-8.980;2023-02-10T01:41:42;103346.48;;;6.19;81.66
57412;BME280;43247;52.828;-8.980;2023-02-10T01:42:42;103347.02;;;6.19;81.67
57412;BME280;43247;52.828;-8.980;2023-02-10T01:43:54;103346.81;;;6.19;81.65
57412;BME280;43247;52.828;-8.980;2023-02-10T01:45:44;103346.59;;;6.19;81.72
57412;BME280;43247;52.828;-8.980;2023-02-10T01:46:44;103346.45;;;6.19;81.72
57412;BME280;43247;52.828;-8.980;2023-02-10T01:47:47;103347.60;;;6.19;81.73
57412;BME280;43247;52.828;-8.980;2023-02-10T01:48:46;103347.55;;;6.20;81.72
57412;BME280;43247;52.828;-8.980;2023-02-10T01:49:48;103346.18;;;6.20;81.73
57412;BME280;43247;52.828;-8.980;2023-02-10T01:50:50;103347.56;;;6.20;81.77
57412;BME280;43247;52.828;-8.980;2023-02-10T01:51:51;103349.38;;;6.21;81.74
57412;BME280;43247;52.828;-8.980;2023-02-10T01:52:48;103350.70;;;6.21;81.73
57412;BME280;43247;52.828;-8.980;2023-02-10T01:53:48;103350.27;;;6.21;81.74
57412;BME280;43247;52.828;-8.980;2023-02-10T01:54:53;103350.35;;;6.22;81.74
57412;BME280;43247;52.828;-8.980;2023-02-10T01:55:52;103350.59;;;6.22;81.75
57412;BME280;43247;52.828;-8.980;2023-02-10T01:56:50;103350.00;;;6.23;81.82
57412;BME280;43247;52.828;-8.980;2023-02-10T01:57:51;103349.78;;;6.23;81.78
57412;BME280;43247;52.828;-8.980;2023-02-10T01:58:52;103347.15;;;6.23;81.78
57412;BME280;43247;52.828;-8.980;2023-02-10T01:59:52;103345.23;;;6.23;81.77
57412;BME280;43247;52.828;-8.980;2023-02-10T02:00:53;103344.79;;;6.24;81.78
57412;BME280;43247;52.828;-8.980;2023-02-10T02:01:55;103345.19;;;6.24;81.83
57412;BME280;43247;52.828;-8.980;2023-02-10T02:02:54;103342.66;;;6.25;81.85
57412;BME280;43247;52.828;-8.980;2023-02-10T02:03:54;103339.77;;;6.24;81.88
57412;BME280;43247;52.828;-8.980;2023-02-10T02:04:59;103338.84;;;6.24;81.90
57412;BME280;43247;52.828;-8.980;2023-02-10T02:05:56;103342.47;;;6.25;81.98
57412;BME280;43247;52.828;-8.980;2023-02-10T02:06:56;103341.06;;;6.25;82.01
57412;BME280;43247;52.828;-8.980;2023-02-10T02:08:01;103336.48;;;6.26;82.03
57412;BME280;43247;52.828;-8.980;2023-02-10T02:08:57;103337.84;;;6.27;81.99
57412;BME280;43247;52.828;-8.980;2023-02-10T02:09:58;103335.99;;;6.28;82.02
57412;BME280;43247;52.828;-8.980;2023-02-10T02:11:06;103335.37;;;6.28;82.02
57412;BME280;43247;52.828;-8.980;2023-02-10T02:12:03;103338.20;;;6.29;82.00
57412;BME280;43247;52.828;-8.980;2023-02-10T02:13:04;103337.82;;;6.29;81.99
57412;BME280;43247;52.828;-8.980;2023-02-10T02:14:10;103333.45;;;6.29;81.95
57412;BME280;43247;52.828;-8.980;2023-02-10T02:15:03;103334.64;;;6.29;81.98
57412;BME280;43247;52.828;-8.980;2023-02-10T02:16:06;103334.38;;;6.30;81.99
57412;BME280;43247;52.828;-8.980;2023-02-10T02:17:06;103334.95;;;6.30;81.99
57412;BME280;43247;52.828;-8.980;2023-02-10T02:18:06;103331.55;;;6.30;81.99
57412;BME280;43247;52.828;-8.980;2023-02-10T02:19:05;103329.80;;;6.31;81.98
57412;BME280;43247;52.828;-8.980;2023-02-10T02:21:12;103331.21;;;6.32;82.07
57412;BME280;43247;52.828;-8.980;2023-02-10T02:23:12;103331.10;;;6.33;82.05
57412;BME280;43247;52.828;-8.980;2023-02-10T02:24:16;103330.04;;;6.33;82.03
57412;BME280;43247;52.828;-8.980;2023-02-10T02:25:12;103332.11;;;6.33;82.09
57412;BME280;43247;52.828;-8.980;2023-02-10T02:27:14;103328.31;;;6.35;82.17
57412;BME280;43247;52.828;-8.980;2023-02-10T02:28:15;103325.85;;;6.34;82.12
57412;BME280;43247;52.828;-8.980;2023-02-10T02:29:15;103325.16;;;6.35;82.17
57412;BME280;43247;52.828;-8.980;2023-02-10T02:32:05;103325.02;;;6.37;82.18
57412;BME280;43247;52.828;-8.980;2023-02-10T02:33:07;103324.42;;;6.37;82.18
57412;BME280;43247;52.828;-8.980;2023-02-10T02:34:07;103328.06;;;6.38;82.20
57412;BME280;43247;52.828;-8.980;2023-02-10T02:35:07;103328.60;;;6.38;82.17
57412;BME280;43247;52.828;-8.980;2023-02-10T02:36:09;103329.97;;;6.39;82.18
57412;BME280;43247;52.828;-8.980;2023-02-10T02:37:09;103328.67;;;6.39;82.19
57412;BME280;43247;52.828;-8.980;2023-02-10T02:38:05;103325.94;;;6.40;82.24
57412;BME280;43247;52.828;-8.980;2023-02-10T02:39:05;103326.08;;;6.40;82.28
57412;BME280;43247;52.828;-8.980;2023-02-10T02:40:06;103325.67;;;6.41;82.27
57412;BME280;43247;52.828;-8.980;2023-02-10T02:41:06;103327.34;;;6.42;82.24
57412;BME280;43247;52.828;-8.980;2023-02-10T02:42:15;103328.81;;;6.42;82.22
57412;BME280;43247;52.828;-8.980;2023-02-10T02:43:06;103329.35;;;6.43;82.23
57412;BME280;43247;52.828;-8.980;2023-02-10T02:44:07;103334.51;;;6.42;82.48
57412;BME280;43247;52.828;-8.980;2023-02-10T02:45:09;103335.96;;;6.41;82.63
57412;BME280;43247;52.828;-8.980;2023-02-10T02:46:12;103335.50;;;6.44;82.45
57412;BME280;43247;52.828;-8.980;2023-02-10T02:47:13;103337.28;;;6.44;82.33
57412;BME280;43247;52.828;-8.980;2023-02-10T02:48:18;103335.46;;;6.46;82.20
57412;BME280;43247;52.828;-8.980;2023-02-10T02:49:13;103335.19;;;6.46;82.12
57412;BME280;43247;52.828;-8.980;2023-02-10T02:50:19;103337.07;;;6.44;82.12
57412;BME280;43247;52.828;-8.980;2023-02-10T02:51:15;103334.53;;;6.47;82.12
57412;BME280;43247;52.828;-8.980;2023-02-10T02:52:12;103336.57;;;6.51;82.03
57412;BME280;43247;52.828;-8.980;2023-02-10T02:53:19;103333.77;;;6.53;81.93
57412;BME280;43247;52.828;-8.980;2023-02-10T02:54:15;103332.40;;;6.54;81.93
57412;BME280;43247;52.828;-8.980;2023-02-10T02:55:13;103332.63;;;6.56;81.94
57412;BME280;43247;52.828;-8.980;2023-02-10T02:56:18;103332.71;;;6.57;81.91
57412;BME280;43247;52.828;-8.980;2023-02-10T02:57:13;103327.95;;;6.57;81.99
57412;BME280;43247;52.828;-8.980;2023-02-10T02:58:15;103330.34;;;6.57;81.99
57412;BME280;43247;52.828;-8.980;2023-02-10T02:59:15;103331.18;;;6.56;81.92
57412;BME280;43247;52.828;-8.980;2023-02-10T03:00:14;103331.22;;;6.57;81.85
57412;BME280;43247;52.828;-8.980;2023-02-10T03:01:14;103330.48;;;6.56;81.94
57412;BME280;43247;52.828;-8.980;2023-02-10T03:02:13;103330.25;;;6.57;81.97
57412;BME280;43247;52.828;-8.980;2023-02-10T03:03:11;103330.15;;;6.57;81.92
57412;BME280;43247;52.828;-8.980;2023-02-10T03:04:13;103329.22;;;6.58;81.93
57412;BME280;43247;52.828;-8.980;2023-02-10T03:05:17;103330.32;;;6.58;82.01
57412;BME280;43247;52.828;-8.980;2023-02-10T03:06:12;103328.49;;;6.60;82.00
57412;BME280;43247;52.828;-8.980;2023-02-10T03:07:12;103327.28;;;6.60;82.00
57412;BME280;43247;52.828;-8.980;2023-02-10T03:08:13;103322.91;;;6.61;82.01
57412;BME280;43247;52.828;-8.980;2023-02-10T03:09:14;103323.24;;;6.63;82.02
57412;BME280;43247;52.828;-8.980;2023-02-10T03:10:13;103323.20;;;6.63;81.98
57412;BME280;43247;52.828;-8.980;2023-02-10T03:11:13;103318.48;;;6.63;82.01
57412;BME280;43247;52.828;-8.980;2023-02-10T03:12:13;103317.09;;;6.63;82.03
57412;BME280;43247;52.828;-8.980;2023-02-10T03:13:14;103316.98;;;6.64;82.03
57412;BME280;43247;52.828;-8.980;2023-02-10T03:14:15;103316.44;;;6.65;82.05
57412;BME280;43247;52.828;-8.980;2023-02-10T03:15:15;103317.28;;;6.65;82.05
57412;BME280;43247;52.828;-8.980;2023-02-10T03:16:15;103315.87;;;6.65;82.04
57412;BME280;43247;52.828;-8.980;2023-02-10T03:17:15;103317.40;;;6.66;82.06
57412;BME280;43247;52.828;-8.980;2023-02-10T03:18:15;103316.26;;;6.66;82.06
57412;BME280;43247;52.828;-8.980;2023-02-10T03:19:16;103317.76;;;6.66;82.09
57412;BME280;43247;52.828;-8.980;2023-02-10T03:20:16;103317.17;;;6.67;82.10
57412;BME280;43247;52.828;-8.980;2023-02-10T03:21:16;103318.99;;;6.66;82.17
57412;BME280;43247;52.828;-8.980;2023-02-10T03:22:16;103317.85;;;6.66;82.21
57412;BME280;43247;52.828;-8.980;2023-02-10T03:23:17;103318.92;;;6.66;82.25
57412;BME280;43247;52.828;-8.980;2023-02-10T03:24:17;103318.52;;;6.66;82.25
57412;BME280;43247;52.828;-8.980;2023-02-10T03:25:18;103315.31;;;6.66;82.29
57412;BME280;43247;52.828;-8.980;2023-02-10T03:26:18;103314.40;;;6.67;82.29
57412;BME280;43247;52.828;-8.980;2023-02-10T03:27:18;103313.44;;;6.67;82.30
57412;BME280;43247;52.828;-8.980;2023-02-10T03:28:18;103312.00;;;6.67;82.38
57412;BME280;43247;52.828;-8.980;2023-02-10T03:29:19;103308.11;;;6.67;82.37
57412;BME280;43247;52.828;-8.980;2023-02-10T03:30:19;103309.62;;;6.67;82.39
57412;BME280;43247;52.828;-8.980;2023-02-10T03:31:20;103304.23;;;6.67;82.43
57412;BME280;43247;52.828;-8.980;2023-02-10T03:32:20;103302.37;;;6.67;82.41
57412;BME280;43247;52.828;-8.980;2023-02-10T03:33:21;103304.07;;;6.68;82.44
57412;BME280;43247;52.828;-8.980;2023-02-10T03:34:20;103301.78;;;6.67;82.49
57412;BME280;43247;52.828;-8.980;2023-02-10T03:35:21;103303.26;;;6.68;82.48
57412;BME280;43247;52.828;-8.980;2023-02-10T03:36:21;103302.05;;;6.68;82.55
57412;BME280;43247;52.828;-8.980;2023-02-10T03:37:21;103300.90;;;6.69;82.55
57412;BME280;43247;52.828;-8.980;2023-02-10T03:38:21;103299.89;;;6.69;82.60
57412;BME280;43247;52.828;-8.980;2023-02-10T03:39:21;103298.88;;;6.69;82.58
57412;BME280;43247;52.828;-8.980;2023-02-10T03:40:22;103295.37;;;6.69;82.54
57412;BME280;43247;52.828;-8.980;2023-02-10T03:41:22;103300.68;;;6.69;82.53
57412;BME280;43247;52.828;-8.980;2023-02-10T03:42:22;103300.57;;;6.70;82.53
57412;BME280;43247;52.828;-8.980;2023-02-10T03:43:23;103300.74;;;6.70;82.53
57412;BME280;43247;52.828;-8.980;2023-02-10T03:44:23;103298.02;;;6.71;82.58
57412;BME280;43247;52.828;-8.980;2023-02-10T03:45:23;103296.24;;;6.70;82.58
57412;BME280;43247;52.828;-8.980;2023-02-10T03:46:23;103292.32;;;6.71;82.57
57412;BME280;43247;52.828;-8.980;2023-02-10T03:47:23;103292.87;;;6.71;82.68
57412;BME280;43247;52.828;-8.980;2023-02-10T03:48:23;103293.61;;;6.71;82.71
57412;BME280;43247;52.828;-8.980;2023-02-10T03:49:24;103290.46;;;6.72;82.69
57412;BME280;43247;52.828;-8.980;2023-02-10T03:50:24;103287.11;;;6.72;82.70
57412;BME280;43247;52.828;-8.980;2023-02-10T03:51:24;103287.15;;;6.72;82.67
57412;BME280;43247;52.828;-8.980;2023-02-10T03:52:24;103283.98;;;6.72;82.72
57412;BME280;43247;52.828;-8.980;2023-02-10T03:53:25;103280.40;;;6.73;82.77
57412;BME280;43247;52.828;-8.980;2023-02-10T03:54:25;103280.01;;;6.73;82.76
57412;BME280;43247;52.828;-8.980;2023-02-10T03:55:25;103278.42;;;6.74;82.80
57412;BME280;43247;52.828;-8.980;2023-02-10T03:56:25;103278.01;;;6.74;82.77
57412;BME280;43247;52.828;-8.980;2023-02-10T03:57:25;103276.48;;;6.75;82.82
57412;BME280;43247;52.828;-8.980;2023-02-10T03:58:26;103274.29;;;6.75;82.84
57412;BME280;43247;52.828;-8.980;2023-02-10T03:59:26;103275.91;;;6.75;83.01
57412;BME280;43247;52.828;-8.980;2023-02-10T04:00:26;103274.20;;;6.73;83.23
57412;BME280;43247;52.828;-8.980;2023-02-10T04:01:26;103274.15;;;6.76;83.09
57412;BME280;43247;52.828;-8.980;2023-02-10T04:02:26;103276.34;;;6.77;82.99
57412;BME280;43247;52.828;-8.980;2023-02-10T04:03:27;103270.66;;;6.77;82.94
57412;BME280;43247;52.828;-8.980;2023-02-10T04:04:27;103273.21;;;6.78;82.88
57412;BME280;43247;52.828;-8.980;2023-02-10T04:05:27;103271.70;;;6.81;82.75
57412;BME280;43247;52.828;-8.980;2023-02-10T04:06:28;103273.22;;;6.82;82.75
57412;BME280;43247;52.828;-8.980;2023-02-10T04:07:28;103273.25;;;6.84;82.73
57412;BME280;43247;52.828;-8.980;2023-02-10T04:08:28;103271.22;;;6.85;82.68
57412;BME280;43247;52.828;-8.980;2023-02-10T04:09:28;103268.55;;;6.85;82.66
57412;BME280;43247;52.828;-8.980;2023-02-10T04:10:29;103268.00;;;6.87;82.66
57412;BME280;43247;52.828;-8.980;2023-02-10T04:11:29;103269.69;;;6.88;82.64
57412;BME280;43247;52.828;-8.980;2023-02-10T04:12:30;103274.92;;;6.89;82.64
57412;BME280;43247;52.828;-8.980;2023-02-10T04:13:29;103271.09;;;6.90;82.63
57412;BME280;43247;52.828;-8.980;2023-02-10T04:14:29;103270.01;;;6.90;82.66
57412;BME280;43247;52.828;-8.980;2023-02-10T04:15:30;103268.84;;;6.91;82.66
57412;BME280;43247;52.828;-8.980;2023-02-10T04:16:30;103266.84;;;6.92;82.65
57412;BME280;43247;52.828;-8.980;2023-02-10T04:17:30;103269.51;;;6.92;82.65
57412;BME280;43247;52.828;-8.980;2023-02-10T04:18:30;103270.72;;;6.92;82.65
57412;BME280;43247;52.828;-8.980;2023-02-10T04:19:30;103268.62;;;6.92;82.70
57412;BME280;43247;52.828;-8.980;2023-02-10T04:20:30;103270.59;;;6.93;82.69
57412;BME280;43247;52.828;-8.980;2023-02-10T04:21:31;103270.12;;;6.94;82.71
57412;BME280;43247;52.828;-8.980;2023-02-10T04:22:31;103275.05;;;6.95;82.68
57412;BME280;43247;52.828;-8.980;2023-02-10T04:23:31;103277.96;;;6.95;82.71
57412;BME280;43247;52.828;-8.980;2023-02-10T04:24:31;103279.01;;;6.95;82.74
57412;BME280;43247;52.828;-8.980;2023-02-10T04:25:31;103278.84;;;6.95;82.76
57412;BME280;43247;52.828;-8.980;2023-02-10T04:26:32;103279.69;;;6.96;82.76
57412;BME280;43247;52.828;-8.980;2023-02-10T04:27:32;103281.16;;;6.96;82.81
57412;BME280;43247;52.828;-8.980;2023-02-10T04:28:32;103284.57;;;6.96;82.81
57412;BME280;43247;52.828;-8.980;2023-02-10T04:29:32;103286.96;;;6.97;82.81
57412;BME280;43247;52.828;-8.980;2023-02-10T04:30:32;103283.80;;;6.97;82.96
57412;BME280;43247;52.828;-8.980;2023-02-10T04:31:33;103281.48;;;6.97;82.88
57412;BME280;43247;52.828;-8.980;2023-02-10T04:32:33;103280.61;;;6.98;82.92
57412;BME280;43247;52.828;-8.980;2023-02-10T04:33:33;103279.85;;;6.97;82.88
57412;BME280;43247;52.828;-8.980;2023-02-10T04:34:33;103277.83;;;6.97;82.93
57412;BME280;43247;52.828;-8.980;2023-02-10T04:35:33;103276.81;;;6.97;82.95
57412;BME280;43247;52.828;-8.980;2023-02-10T04:36:33;103276.34;;;6.99;82.91
57412;BME280;43247;52.828;-8.980;2023-02-10T04:37:34;103273.79;;;6.99;82.89
57412;BME280;43247;52.828;-8.980;2023-02-10T04:38:34;103274.44;;;7.00;82.91
57412;BME280;43247;52.828;-8.980;2023-02-10T04:39:34;103272.83;;;7.00;82.91
57412;BME280;43247;52.828;-8.980;2023-02-10T04:40:34;103274.79;;;7.01;82.92
57412;BME280;43247;52.828;-8.980;2023-02-10T04:41:34;103269.59;;;7.02;82.91
57412;BME280;43247;52.828;-8.980;2023-02-10T04:42:35;103268.57;;;7.02;82.91
57412;BME280;43247;52.828;-8.980;2023-02-10T04:43:35;103271.80;;;7.03;82.92
57412;BME280;43247;52.828;-8.980;2023-02-10T04:44:36;103272.06;;;7.03;82.95
57412;BME280;43247;52.828;-8.980;2023-02-10T04:45:36;103274.84;;;7.04;82.98
57412;BME280;43247;52.828;-8.980;2023-02-10T04:46:35;103276.21;;;7.05;82.96
57412;BME280;43247;52.828;-8.980;2023-02-10T04:47:36;103276.83;;;7.04;83.10
57412;BME280;43247;52.828;-8.980;2023-02-10T04:48:36;103276.86;;;7.05;83.04
57412;BME280;43247;52.828;-8.980;2023-02-10T04:49:36;103282.35;;;7.04;83.06
57412;BME280;43247;52.828;-8.980;2023-02-10T04:50:37;103278.34;;;7.05;83.02
57412;BME280;43247;52.828;-8.980;2023-02-10T04:51:36;103277.20;;;7.05;83.03
57412;BME280;43247;52.828;-8.980;2023-02-10T04:52:37;103279.13;;;7.05;83.06
57412;BME280;43247;52.828;-8.980;2023-02-10T04:53:37;103282.68;;;7.07;83.03
57412;BME280;43247;52.828;-8.980;2023-02-10T04:54:37;103282.07;;;7.07;83.05
57412;BME280;43247;52.828;-8.980;2023-02-10T04:55:37;103281.35;;;7.07;83.08
57412;BME280;43247;52.828;-8.980;2023-02-10T04:56:38;103280.59;;;7.07;83.08
57412;BME280;43247;52.828;-8.980;2023-02-10T04:57:38;103282.48;;;7.08;83.08
57412;BME280;43247;52.828;-8.980;2023-02-10T04:58:38;103284.10;;;7.08;83.13
57412;BME280;43247;52.828;-8.980;2023-02-10T04:59:38;103288.93;;;7.10;83.11
57412;BME280;43247;52.828;-8.980;2023-02-10T05:00:38;103284.27;;;7.11;83.09
57412;BME280;43247;52.828;-8.980;2023-02-10T05:01:38;103284.74;;;7.11;83.11
57412;BME280;43247;52.828;-8.980;2023-02-10T05:02:39;103284.72;;;7.11;83.11
57412;BME280;43247;52.828;-8.980;2023-02-10T05:03:39;103282.94;;;7.12;83.20
57412;BME280;43247;52.828;-8.980;2023-02-10T05:04:39;103281.76;;;7.12;83.17
57412;BME280;43247;52.828;-8.980;2023-02-10T05:05:39;103284.10;;;7.13;83.14
57412;BME280;43247;52.828;-8.980;2023-02-10T05:06:39;103283.13;;;7.12;83.13
57412;BME280;43247;52.828;-8.980;2023-02-10T05:07:40;103282.49;;;7.12;83.21
57412;BME280;43247;52.828;-8.980;2023-02-10T05:08:40;103284.46;;;7.13;83.20
57412;BME280;43247;52.828;-8.980;2023-02-10T05:09:40;103284.97;;;7.13;83.18
57412;BME280;43247;52.828;-8.980;2023-02-10T05:10:40;103289.13;;;7.14;83.18
57412;BME280;43247;52.828;-8.980;2023-02-10T05:11:40;103289.22;;;7.14;83.21
57412;BME280;43247;52.828;-8.980;2023-02-10T05:12:41;103288.66;;;7.15;83.21
57412;BME280;43247;52.828;-8.980;2023-02-10T05:13:41;103293.79;;;7.16;83.18
57412;BME280;43247;52.828;-8.980;2023-02-10T05:14:41;103288.65;;;7.17;83.19
57412;BME280;43247;52.828;-8.980;2023-02-10T05:15:41;103288.07;;;7.16;83.24
57412;BME280;43247;52.828;-8.980;2023-02-10T05:16:41;103289.79;;;7.17;83.25
57412;BME280;43247;52.828;-8.980;2023-02-10T05:17:42;103291.08;;;7.17;83.28
57412;BME280;43247;52.828;-8.980;2023-02-10T05:18:42;103294.59;;;7.18;83.28
57412;BME280;43247;52.828;-8.980;2023-02-10T05:19:42;103295.80;;;7.18;83.30
57412;BME280;43247;52.828;-8.980;2023-02-10T05:20:42;103294.63;;;7.18;83.29
57412;BME280;43247;52.828;-8.980;2023-02-10T05:21:42;103294.77;;;7.19;83.29